createdAt,value
2022-11-14T00:01:06.944Z,4.80
2022-11-14T00:03:53.017Z,4.80
2022-11-14T00:06:39.252Z,4.80
2022-11-14T00:09:26.415Z,4.80
2022-11-14T00:12:12.925Z,4.90
2022-11-14T00:15:00.711Z,4.90
2022-11-14T00:17:47.310Z,4.90
2022-11-14T00:20:34.402Z,4.90
2022-11-14T00:23:24.477Z,5.00
2022-11-14T00:26:10.485Z,5.00
2022-11-14T00:28:57.193Z,5.00
2022-11-14T00:31:45.388Z,5.00
2022-11-14T00:34:32.241Z,5.00
2022-11-14T00:37:19.157Z,5.00
2022-11-14T00:40:05.939Z,5.00
2022-11-14T00:42:52.131Z,4.90
2022-11-14T00:45:39.269Z,4.80
2022-11-14T00:48:25.928Z,4.80
2022-11-14T00:51:12.653Z,4.70
2022-11-14T00:53:58.629Z,4.70
2022-11-14T00:56:45.804Z,4.70
2022-11-14T00:59:31.958Z,4.70
2022-11-14T01:02:21.998Z,4.60
2022-11-14T01:05:12.184Z,4.50
2022-11-14T01:07:58.410Z,4.40
2022-11-14T01:10:48.848Z,4.30
2022-11-14T01:13:39.211Z,4.40
2022-11-14T01:16:36.057Z,4.40
2022-11-14T01:19:21.798Z,4.40
2022-11-14T01:22:11.465Z,4.40
2022-11-14T01:24:58.510Z,4.40
2022-11-14T01:27:44.973Z,4.40
2022-11-14T01:30:31.822Z,4.40
2022-11-14T01:33:18.072Z,4.50
2022-11-14T01:36:04.616Z,4.50
2022-11-14T01:38:54.985Z,4.60
2022-11-14T01:41:40.821Z,4.60
2022-11-14T01:44:40.029Z,4.70
2022-11-14T01:47:33.079Z,4.70
2022-11-14T01:50:20.074Z,4.70
2022-11-14T01:53:06.823Z,4.70
2022-11-14T01:56:03.296Z,4.70
2022-11-14T01:58:51.561Z,4.70
2022-11-14T02:01:44.886Z,4.70
2022-11-14T02:04:33.200Z,4.70
2022-11-14T02:07:19.370Z,4.60
2022-11-14T02:10:08.050Z,4.60
2022-11-14T02:12:54.784Z,4.50
2022-11-14T02:15:41.431Z,4.40
2022-11-14T02:18:29.094Z,4.40
2022-11-14T02:21:15.946Z,4.40
2022-11-14T02:24:02.460Z,4.30
2022-11-14T02:26:50.385Z,4.20
2022-11-14T02:29:36.840Z,4.20
2022-11-14T02:32:28.475Z,4.10
2022-11-14T02:35:18.398Z,4.10
2022-11-14T02:38:04.330Z,4.00
2022-11-14T02:40:51.295Z,3.90
2022-11-14T02:43:37.360Z,3.90
2022-11-14T02:46:23.616Z,3.90
2022-11-14T02:49:11.401Z,3.80
2022-11-14T02:51:57.790Z,3.80
2022-11-14T02:54:44.212Z,3.70
2022-11-14T02:57:31.067Z,3.70
2022-11-14T03:00:18.249Z,3.70
2022-11-14T03:04:08.747Z,3.70
2022-11-14T03:06:54.466Z,3.60
2022-11-14T03:09:40.728Z,3.70
2022-11-14T03:12:26.744Z,3.60
2022-11-14T03:15:14.624Z,3.60
2022-11-14T03:18:00.523Z,3.60
2022-11-14T03:20:50.364Z,3.60
2022-11-14T03:23:37.481Z,3.50
2022-11-14T03:26:24.949Z,3.50
2022-11-14T03:29:11.161Z,3.50
2022-11-14T03:31:57.634Z,3.40
2022-11-14T03:34:43.675Z,3.40
2022-11-14T03:37:30.795Z,3.40
2022-11-14T03:40:17.417Z,3.30
2022-11-14T03:43:04.756Z,3.30
2022-11-14T03:45:54.228Z,3.20
2022-11-14T03:48:40.310Z,3.30
2022-11-14T03:51:28.431Z,3.30
2022-11-14T03:54:15.024Z,3.20
2022-11-14T03:57:01.439Z,3.20
2022-11-14T03:59:47.930Z,3.20
2022-11-14T04:02:39.143Z,3.20
2022-11-14T04:05:25.432Z,3.20
2022-11-14T04:08:11.757Z,3.20
2022-11-14T04:10:57.522Z,3.10
2022-11-14T04:13:43.703Z,3.10
2022-11-14T04:16:31.118Z,3.10
2022-11-14T04:19:21.513Z,3.10
2022-11-14T04:22:14.528Z,3.10
2022-11-14T04:25:01.192Z,3.10
2022-11-14T04:27:47.822Z,3.10
2022-11-14T04:30:34.896Z,3.10
2022-11-14T04:33:21.914Z,3.10
2022-11-14T04:36:09.758Z,3.00
2022-11-14T04:38:59.246Z,3.00
2022-11-14T04:41:45.422Z,3.00
2022-11-14T04:44:32.455Z,3.00
2022-11-14T04:47:22.315Z,3.00
2022-11-14T04:50:10.828Z,3.00
2022-11-14T04:52:56.652Z,3.00
2022-11-14T04:55:43.908Z,2.90
2022-11-14T04:58:31.148Z,2.90
2022-11-14T05:01:18.250Z,2.90
2022-11-14T05:04:04.853Z,2.90
2022-11-14T05:06:51.555Z,2.80
2022-11-14T05:09:39.174Z,2.80
2022-11-14T05:12:26.087Z,2.80
2022-11-14T05:15:16.344Z,2.90
2022-11-14T05:18:02.499Z,2.90
2022-11-14T05:20:48.788Z,2.90
2022-11-14T05:23:38.371Z,2.80
2022-11-14T05:26:28.686Z,2.80
2022-11-14T05:29:16.072Z,2.80
2022-11-14T05:32:01.969Z,2.80
2022-11-14T05:34:48.376Z,2.80
2022-11-14T05:37:34.555Z,2.80
2022-11-14T05:40:20.818Z,2.80
2022-11-14T05:43:07.275Z,2.80
2022-11-14T05:45:53.467Z,2.90
2022-11-14T05:48:40.736Z,2.90
2022-11-14T05:51:26.865Z,2.90
2022-11-14T05:54:19.747Z,2.90
2022-11-14T05:57:05.811Z,2.80
2022-11-14T05:59:53.520Z,2.90
2022-11-14T06:02:41.258Z,2.80
2022-11-14T06:05:27.907Z,2.90
2022-11-14T06:08:15.398Z,2.90
2022-11-14T06:11:09.567Z,2.90
2022-11-14T06:14:13.643Z,2.90
2022-11-14T06:17:06.115Z,2.90
2022-11-14T06:19:51.842Z,2.90
2022-11-14T06:22:38.227Z,2.80
2022-11-14T06:25:24.447Z,2.70
2022-11-14T06:28:10.653Z,2.80
2022-11-14T06:31:01.467Z,2.80
2022-11-14T06:33:48.427Z,2.80
2022-11-14T06:36:34.386Z,2.80
2022-11-14T06:39:20.741Z,2.80
2022-11-14T06:42:06.646Z,2.80
2022-11-14T06:44:53.044Z,2.90
2022-11-14T06:47:39.638Z,2.90
2022-11-14T06:50:25.705Z,2.90
2022-11-14T06:53:11.950Z,2.90
2022-11-14T06:56:01.874Z,3.00
2022-11-14T06:58:50.005Z,3.00
2022-11-14T07:01:36.543Z,3.00
2022-11-14T07:04:22.679Z,3.10
2022-11-14T07:07:09.193Z,3.10
2022-11-14T07:10:00.224Z,3.20
2022-11-14T07:12:50.367Z,3.20
2022-11-14T07:15:36.486Z,3.30
2022-11-14T07:18:24.630Z,3.20
2022-11-14T07:21:13.329Z,3.10
2022-11-14T07:24:00.339Z,3.10
2022-11-14T07:26:57.808Z,3.20
2022-11-14T07:29:43.944Z,3.30
2022-11-14T07:32:30.669Z,3.30
2022-11-14T07:35:16.746Z,3.30
2022-11-14T07:38:03.519Z,3.30
2022-11-14T07:40:59.808Z,3.30
2022-11-14T07:43:52.873Z,3.40
2022-11-14T07:46:40.418Z,3.40
2022-11-14T07:49:28.037Z,3.50
2022-11-14T07:52:14.543Z,3.90
2022-11-14T07:55:00.686Z,4.40
2022-11-14T07:57:53.190Z,4.80
2022-11-14T08:00:39.732Z,5.80
2022-11-14T08:03:26.437Z,6.40
2022-11-14T08:06:14.847Z,6.50
2022-11-14T08:09:02.053Z,6.20
2022-11-14T08:11:48.091Z,5.90
2022-11-14T08:14:38.366Z,5.40
2022-11-14T08:17:24.811Z,5.50
2022-11-14T08:20:11.406Z,5.60
2022-11-14T08:23:05.305Z,5.80
2022-11-14T08:25:51.562Z,6.00
2022-11-14T08:28:39.125Z,6.20
2022-11-14T08:31:25.591Z,6.20
2022-11-14T08:34:12.417Z,6.10
2022-11-14T08:37:00.070Z,6.00
2022-11-14T08:39:46.343Z,5.90
2022-11-14T08:42:43.295Z,5.90
2022-11-14T08:45:30.266Z,5.90
2022-11-14T08:48:18.081Z,6.00
2022-11-14T08:51:05.656Z,6.10
2022-11-14T08:53:54.013Z,6.40
2022-11-14T08:56:39.874Z,6.70
2022-11-14T08:59:26.246Z,7.00
2022-11-14T09:02:13.827Z,7.40
2022-11-14T09:04:59.769Z,8.30
2022-11-14T09:07:45.715Z,10.00
2022-11-14T09:10:31.998Z,10.10
2022-11-14T09:13:18.476Z,10.10
2022-11-14T09:16:05.729Z,10.00
2022-11-14T09:18:58.556Z,10.50
2022-11-14T09:21:44.625Z,10.90
2022-11-14T09:24:30.381Z,11.30
2022-11-14T09:27:17.196Z,11.40
2022-11-14T09:30:03.795Z,11.10
2022-11-14T09:32:50.924Z,10.80
2022-11-14T09:35:38.205Z,11.40
2022-11-14T09:38:32.850Z,11.70
2022-11-14T09:41:24.938Z,12.50
2022-11-14T09:44:20.099Z,13.60
2022-11-14T09:47:16.662Z,14.60
2022-11-14T09:50:12.908Z,15.50
2022-11-14T09:53:01.577Z,16.90
2022-11-14T09:55:49.608Z,18.20
2022-11-14T09:58:35.783Z,19.50
2022-11-14T10:01:43.577Z,20.40
2022-11-14T10:04:49.095Z,21.30
2022-11-14T10:08:08.612Z,22.10
2022-11-14T10:10:54.835Z,22.80
2022-11-14T10:13:51.492Z,22.90
2022-11-14T10:16:50.403Z,23.20
2022-11-14T10:19:59.659Z,23.60
2022-11-14T10:23:29.664Z,23.80
2022-11-14T10:26:16.124Z,24.20
2022-11-14T10:29:05.535Z,24.90
2022-11-14T10:31:55.592Z,25.50
2022-11-14T10:34:45.236Z,26.00
2022-11-14T10:37:41.409Z,26.40
2022-11-14T10:40:45.387Z,26.50
2022-11-14T10:43:40.524Z,26.30
2022-11-14T10:46:38.287Z,26.60
2022-11-14T10:49:25.646Z,26.80
2022-11-14T10:52:22.845Z,26.80
2022-11-14T10:55:14.690Z,27.10
2022-11-14T10:58:00.988Z,27.20
2022-11-14T11:00:48.915Z,26.80
2022-11-14T11:03:44.152Z,27.00
2022-11-14T11:06:30.353Z,27.80
2022-11-14T11:09:43.789Z,27.50
2022-11-14T11:12:38.495Z,28.00
2022-11-14T11:15:29.082Z,24.30
2022-11-14T11:18:35.905Z,24.00
2022-11-14T11:21:23.616Z,24.30
2022-11-14T11:24:10.303Z,24.20
2022-11-14T11:27:15.497Z,23.90
2022-11-14T11:30:08.423Z,22.60
2022-11-14T11:32:55.424Z,21.10
2022-11-14T11:35:42.768Z,18.80
2022-11-14T11:38:34.980Z,18.00
2022-11-14T11:42:07.177Z,18.40
2022-11-14T11:44:40.659Z,18.20
2022-11-14T11:47:33.369Z,18.00
2022-11-14T11:50:21.424Z,18.00
2022-11-14T11:53:21.361Z,18.00
2022-11-14T11:56:30.938Z,18.30
2022-11-14T11:59:28.940Z,18.20
2022-11-14T12:02:50.132Z,17.50
2022-11-14T12:05:52.411Z,18.00
2022-11-14T12:09:01.350Z,18.10
2022-11-14T12:12:01.447Z,18.20
2022-11-14T12:15:20.533Z,18.00
2022-11-14T12:18:24.142Z,18.00
2022-11-14T12:21:14.767Z,18.30
2022-11-14T12:24:03.809Z,18.50
2022-11-14T12:26:50.080Z,17.80
2022-11-14T12:29:42.371Z,18.00
2022-11-14T12:32:31.589Z,17.50
2022-11-14T12:35:27.396Z,17.40
2022-11-14T12:38:15.851Z,17.70
2022-11-14T12:41:02.716Z,17.40
2022-11-14T12:43:49.313Z,18.10
2022-11-14T12:47:04.230Z,19.10
2022-11-14T12:49:59.591Z,18.90
2022-11-14T12:52:50.266Z,19.20
2022-11-14T12:55:36.486Z,18.60
2022-11-14T12:58:32.436Z,18.60
2022-11-14T13:01:24.941Z,18.70
2022-11-14T13:04:12.239Z,19.90
2022-11-14T13:07:03.872Z,20.20
2022-11-14T13:09:58.226Z,20.40
2022-11-14T13:13:18.567Z,19.40
2022-11-14T13:16:23.122Z,20.80
2022-11-14T13:19:35.563Z,19.50
2022-11-14T13:22:39.489Z,19.70
2022-11-14T13:25:26.689Z,21.70
2022-11-14T13:28:31.589Z,23.10
2022-11-14T13:31:22.110Z,22.40
2022-11-14T13:34:28.134Z,21.90
2022-11-14T13:37:33.520Z,20.70
2022-11-14T13:40:20.705Z,19.60
2022-11-14T13:43:25.908Z,19.40
2022-11-14T13:46:31.485Z,20.60
2022-11-14T13:49:30.254Z,19.40
2022-11-14T13:52:17.363Z,19.70
2022-11-14T13:55:04.696Z,19.40
2022-11-14T13:58:03.564Z,19.40
2022-11-14T14:01:09.606Z,19.70
2022-11-14T14:04:08.926Z,20.00
2022-11-14T14:07:06.031Z,20.30
2022-11-14T14:10:05.735Z,19.20
2022-11-14T14:13:14.365Z,19.70
2022-11-14T14:16:27.526Z,19.90
2022-11-14T14:19:33.322Z,19.60
2022-11-14T14:22:46.246Z,20.10
2022-11-14T14:25:52.478Z,19.70
2022-11-14T14:28:57.801Z,19.70
2022-11-14T14:31:52.286Z,20.30
2022-11-14T14:34:42.955Z,20.60
2022-11-14T14:37:33.217Z,19.90
2022-11-14T14:40:28.149Z,19.50
2022-11-14T14:43:24.028Z,19.50
2022-11-14T14:46:10.820Z,19.40
2022-11-14T14:49:04.741Z,18.20
2022-11-14T14:51:58.892Z,17.20
2022-11-14T14:54:57.002Z,16.50
2022-11-14T14:57:50.272Z,16.20
2022-11-14T15:00:36.505Z,15.50
2022-11-14T15:03:23.454Z,15.00
2022-11-14T15:06:31.212Z,14.70
2022-11-14T15:09:29.860Z,14.30
2022-11-14T15:12:17.132Z,13.90
2022-11-14T15:15:04.682Z,13.60
2022-11-14T15:17:53.299Z,13.10
2022-11-14T15:20:40.482Z,12.90
2022-11-14T15:23:31.763Z,12.80
2022-11-14T15:26:19.423Z,12.70
2022-11-14T15:29:18.401Z,12.70
2022-11-14T15:32:04.985Z,12.50
2022-11-14T15:35:08.484Z,12.40
2022-11-14T15:38:21.877Z,12.20
2022-11-14T15:41:15.021Z,12.10
2022-11-14T15:44:05.942Z,12.00
2022-11-14T15:46:56.224Z,11.90
2022-11-14T15:49:52.617Z,11.80
2022-11-14T15:53:05.602Z,11.80
2022-11-14T15:56:18.246Z,11.80
2022-11-14T15:59:05.120Z,11.60
2022-11-14T16:01:53.722Z,11.50
2022-11-14T16:04:45.961Z,11.30
2022-11-14T16:07:35.073Z,11.20
2022-11-14T16:10:25.738Z,11.10
2022-11-14T16:13:12.521Z,11.00
2022-11-14T16:15:59.758Z,10.80
2022-11-14T16:18:45.794Z,10.70
2022-11-14T16:21:37.269Z,10.70
2022-11-14T16:24:23.935Z,10.60
2022-11-14T16:27:10.153Z,10.50
2022-11-14T16:30:00.408Z,10.40
2022-11-14T16:32:47.829Z,10.30
2022-11-14T16:36:07.576Z,10.20
2022-11-14T16:38:58.614Z,10.10
2022-11-14T16:41:45.073Z,10.00
2022-11-14T16:44:35.799Z,9.90
2022-11-14T16:47:26.773Z,9.80
2022-11-14T16:50:13.091Z,9.70
2022-11-14T16:52:59.811Z,9.60
2022-11-14T16:55:46.622Z,9.50
2022-11-14T16:58:42.183Z,9.40
2022-11-14T17:01:28.799Z,9.30
2022-11-14T17:04:15.340Z,9.30
2022-11-14T17:07:02.131Z,9.20
2022-11-14T17:09:48.371Z,9.10
2022-11-14T17:12:34.722Z,9.10
2022-11-14T17:15:21.387Z,9.00
2022-11-14T17:18:11.719Z,8.90
2022-11-14T17:20:58.398Z,8.80
2022-11-14T17:23:45.114Z,8.70
2022-11-14T17:26:31.421Z,8.70
2022-11-14T17:29:18.530Z,8.60
2022-11-14T17:32:05.437Z,8.60
2022-11-14T17:34:52.990Z,8.40
2022-11-14T17:37:40.609Z,8.40
2022-11-14T17:40:29.174Z,8.50
2022-11-14T17:43:16.901Z,8.40
2022-11-14T17:46:04.574Z,8.40
2022-11-14T17:48:52.369Z,8.40
2022-11-14T17:51:38.827Z,8.40
2022-11-14T17:54:25.679Z,8.40
2022-11-14T17:57:13.780Z,8.40
2022-11-14T18:00:05.071Z,8.30
2022-11-14T18:02:52.840Z,8.30
2022-11-14T18:05:38.954Z,8.30
2022-11-14T18:08:26.448Z,8.30
2022-11-14T18:11:13.996Z,8.40
2022-11-14T18:14:00.852Z,8.50
2022-11-14T18:17:11.224Z,8.50
2022-11-14T18:20:00.845Z,8.40
2022-11-14T18:22:47.988Z,8.30
2022-11-14T18:25:34.933Z,8.50
2022-11-14T18:28:22.814Z,8.50
2022-11-14T18:31:15.610Z,8.60
2022-11-14T18:34:02.918Z,8.70
2022-11-14T18:36:49.399Z,8.80
2022-11-14T18:39:36.214Z,8.90
2022-11-14T18:42:22.665Z,8.90
2022-11-14T18:45:09.208Z,9.00
2022-11-14T18:47:58.919Z,9.10
2022-11-14T18:50:46.934Z,9.10
2022-11-14T18:53:33.988Z,9.10
2022-11-14T18:56:22.777Z,9.10
2022-11-14T18:59:10.706Z,9.10
2022-11-14T19:02:03.860Z,9.00
2022-11-14T19:04:57.949Z,9.00
2022-11-14T19:07:44.327Z,8.80
2022-11-14T19:10:30.711Z,8.70
2022-11-14T19:13:18.028Z,8.50
2022-11-14T19:16:05.281Z,8.40
2022-11-14T19:19:29.718Z,8.30
2022-11-14T19:22:17.091Z,8.20
2022-11-14T19:25:18.157Z,8.10
2022-11-14T19:28:08.484Z,8.00
2022-11-14T19:31:06.247Z,8.00
2022-11-14T19:33:56.475Z,7.80
2022-11-14T19:36:59.399Z,7.80
2022-11-14T19:39:46.529Z,7.70
2022-11-14T19:42:40.015Z,7.60
2022-11-14T19:45:33.383Z,7.60
2022-11-14T19:48:24.418Z,7.60
2022-11-14T19:51:21.746Z,7.60
2022-11-14T19:54:18.147Z,7.50
2022-11-14T19:57:07.712Z,7.50
2022-11-14T20:00:02.165Z,7.50
2022-11-14T20:02:48.603Z,7.40
2022-11-14T20:05:45.090Z,7.40
2022-11-14T20:09:04.386Z,7.50
2022-11-14T20:11:52.682Z,7.40
2022-11-14T20:14:39.866Z,7.40
2022-11-14T20:17:26.962Z,7.40
2022-11-14T20:20:16.733Z,7.40
2022-11-14T20:23:13.445Z,7.30
2022-11-14T20:25:59.174Z,7.20
2022-11-14T20:28:46.039Z,7.10
2022-11-14T20:31:33.242Z,7.20
2022-11-14T20:34:20.511Z,7.00
2022-11-14T20:37:15.409Z,7.00
2022-11-14T20:40:02.636Z,6.90
2022-11-14T20:42:49.134Z,6.90
2022-11-14T20:45:35.482Z,6.90
2022-11-14T20:48:21.754Z,6.90
2022-11-14T20:51:10.651Z,6.90
2022-11-14T20:53:57.477Z,6.90
2022-11-14T20:56:43.883Z,6.90
2022-11-14T20:59:29.643Z,6.90
2022-11-14T21:02:17.587Z,6.90
2022-11-14T21:05:04.289Z,6.70
2022-11-14T21:07:50.491Z,6.80
2022-11-14T21:10:45.358Z,6.80
2022-11-14T21:13:54.914Z,6.80
2022-11-14T21:16:41.034Z,6.80
2022-11-14T21:19:29.134Z,6.80
2022-11-14T21:22:23.807Z,6.90
2022-11-14T21:25:09.814Z,6.90
2022-11-14T21:27:56.306Z,7.00
2022-11-14T21:30:43.045Z,7.10
2022-11-14T21:33:31.175Z,7.10
2022-11-14T21:39:31.951Z,7.20
2022-11-14T21:42:18.741Z,7.50
2022-11-14T21:45:05.563Z,7.60
2022-11-14T21:47:51.847Z,7.80
2022-11-14T21:50:37.996Z,7.80
2022-11-14T21:53:24.130Z,7.80
2022-11-14T21:56:12.283Z,7.70
2022-11-14T21:59:15.827Z,8.10
2022-11-14T22:02:23.265Z,8.30
2022-11-14T22:05:16.023Z,8.40
2022-11-14T22:08:02.822Z,8.70
2022-11-14T22:10:49.665Z,8.70
2022-11-14T22:13:36.897Z,8.80
2022-11-14T22:16:23.359Z,8.90
2022-11-14T22:19:12.905Z,8.90
2022-11-14T22:21:59.232Z,9.00
2022-11-14T22:24:48.904Z,9.00
2022-11-14T22:27:35.286Z,9.20
2022-11-14T22:30:21.638Z,9.20
2022-11-14T22:33:11.155Z,9.20
2022-11-14T22:36:29.781Z,9.20
2022-11-14T22:39:16.022Z,9.20
2022-11-14T22:42:05.718Z,9.20
2022-11-14T22:44:52.578Z,9.20
2022-11-14T22:47:40.327Z,9.30
2022-11-14T22:50:27.041Z,9.30
2022-11-14T22:53:13.581Z,9.40
2022-11-14T22:56:07.367Z,9.40
2022-11-14T22:58:53.720Z,9.40
2022-11-14T23:01:46.033Z,9.50
2022-11-14T23:04:32.639Z,9.50
2022-11-14T23:07:18.886Z,9.50
2022-11-14T23:10:09.427Z,9.50
2022-11-14T23:12:55.851Z,9.50
2022-11-14T23:15:46.131Z,9.60
2022-11-14T23:18:33.787Z,9.60
2022-11-14T23:21:24.886Z,9.70
2022-11-14T23:24:17.354Z,9.70
2022-11-14T23:27:03.829Z,9.80
2022-11-14T23:29:49.923Z,9.80
2022-11-14T23:32:45.497Z,9.80
2022-11-14T23:35:32.081Z,9.80
2022-11-14T23:38:18.999Z,9.80
2022-11-14T23:41:05.047Z,9.90
2022-11-14T23:43:51.401Z,10.10
2022-11-14T23:46:37.474Z,10.10
2022-11-14T23:49:24.154Z,10.10
2022-11-14T23:52:10.645Z,10.10
2022-11-14T23:55:07.631Z,10.20
2022-11-14T23:57:54.120Z,10.20
